Time;durP1;ratioP1;P1;durP2;ratioP2;P2;SDS_P1;SDS_P2;PMS_P1;PMS_P2;Temp;Humidity;BMP_temperature;BMP_pressure;BME280_temperature;BME280_humidity;BME280_pressure;Samples;Min_cycle;Max_cycle;Signal;HPM_P1;HPM_P2
2022/12/21 00:01:15;;;;;;;19.67;13.07;;;9.00;99.90;;;;;;6248208;22;20383;-84
2022/12/21 00:03:42;;;;;;;21.30;13.98;;;9.00;99.90;;;;;;6273384;22;20007;-84
2022/12/21 00:06:09;;;;;;;18.48;11.75;;;9.00;99.90;;;;;;6272884;22;20083;-84
2022/12/21 00:08:41;;;;;;;23.50;14.35;;;9.00;99.90;;;;;;6247474;22;20019;-84
2022/12/21 00:11:08;;;;;;;18.17;12.00;;;8.90;99.90;;;;;;6247766;22;20388;-84
2022/12/21 00:13:34;;;;;;;15.38;9.80;;;8.90;99.90;;;;;;6273163;22;20004;-85
2022/12/21 00:16:02;;;;;;;20.33;12.23;;;8.90;99.90;;;;;;6274039;22;20436;-85
2022/12/21 00:18:30;;;;;;;21.88;12.68;;;8.90;99.90;;;;;;6298888;22;20066;-85
2022/12/21 00:21:00;;;;;;;25.42;14.80;;;8.90;99.90;;;;;;6298487;22;20016;-84
2022/12/21 00:23:27;;;;;;;23.95;14.90;;;8.90;99.90;;;;;;6273200;22;20065;-85
2022/12/21 00:25:53;;;;;;;23.67;14.20;;;8.90;99.90;;;;;;6273362;22;20375;-85
2022/12/21 00:28:19;;;;;;;34.13;18.83;;;8.90;99.90;;;;;;6272622;22;20004;-84
2022/12/21 00:30:45;;;;;;;31.33;17.75;;;8.90;99.90;;;;;;6274205;22;20015;-84
2022/12/21 00:33:11;;;;;;;34.00;19.60;;;8.90;99.90;;;;;;6247125;22;20018;-84
2022/12/21 00:35:36;;;;;;;30.33;18.35;;;8.90;99.90;;;;;;6247607;22;20000;-85
2022/12/21 00:38:02;;;;;;;26.65;16.23;;;8.90;99.90;;;;;;6272776;22;20242;-85
2022/12/21 00:40:27;;;;;;;24.02;14.20;;;8.80;99.90;;;;;;6298396;22;20022;-85
2022/12/21 00:42:55;;;;;;;25.05;14.63;;;8.80;99.90;;;;;;6272983;22;20095;-84
2022/12/21 00:45:22;;;;;;;22.80;13.02;;;8.80;99.90;;;;;;6247632;22;20035;-85
2022/12/21 00:47:47;;;;;;;20.35;13.27;;;8.80;99.90;;;;;;6247328;22;20000;-86
2022/12/21 00:50:13;;;;;;;19.90;12.27;;;8.80;99.90;;;;;;6298471;22;20027;-85
2022/12/21 00:52:39;;;;;;;19.00;11.93;;;8.70;99.90;;;;;;6298919;22;20102;-85
2022/12/21 00:55:05;;;;;;;19.05;10.80;;;8.70;99.90;;;;;;6272945;22;20435;-84
2022/12/21 00:57:31;;;;;;;19.13;11.45;;;8.70;99.90;;;;;;6272736;22;20375;-84
2022/12/21 00:59:56;;;;;;;18.70;11.25;;;8.70;99.90;;;;;;6247448;22;20015;-85
2022/12/21 01:02:22;;;;;;;18.55;11.43;;;8.70;99.90;;;;;;6272480;22;20004;-85
2022/12/21 01:04:48;;;;;;;18.92;11.07;;;8.70;99.90;;;;;;6246497;22;20004;-85
2022/12/21 01:07:15;;;;;;;19.17;12.13;;;8.70;99.90;;;;;;6272213;22;20014;-84
2022/12/21 01:09:41;;;;;;;30.70;16.33;;;8.70;99.90;;;;;;6247573;22;20035;-84
2022/12/21 01:12:06;;;;;;;34.08;18.85;;;8.70;99.90;;;;;;6298289;22;20004;-85
2022/12/21 01:14:32;;;;;;;35.53;20.17;;;8.70;99.90;;;;;;6272325;22;20003;-85
2022/12/21 01:16:58;;;;;;;29.63;17.67;;;8.70;99.90;;;;;;6272184;22;20015;-85
2022/12/21 01:19:24;;;;;;;30.63;17.58;;;8.70;99.90;;;;;;6271952;22;20023;-85
2022/12/21 01:21:50;;;;;;;25.08;14.63;;;8.70;99.90;;;;;;6247256;22;20008;-85
2022/12/21 01:24:15;;;;;;;25.33;14.02;;;8.60;99.90;;;;;;6247147;22;20086;-84
2022/12/21 01:26:41;;;;;;;24.73;14.00;;;8.60;99.90;;;;;;6272883;22;20057;-84
2022/12/21 01:29:08;;;;;;;24.05;13.05;;;8.50;99.90;;;;;;6247068;22;20008;-85
2022/12/21 01:31:34;;;;;;;22.10;12.45;;;8.60;99.90;;;;;;6272218;22;20444;-85
2022/12/21 01:34:00;;;;;;;20.55;12.57;;;8.50;99.90;;;;;;6298033;22;20014;-84
2022/12/21 01:36:25;;;;;;;23.67;13.25;;;8.50;99.90;;;;;;6298422;22;20003;-84
2022/12/21 01:38:51;;;;;;;20.77;11.65;;;8.50;99.90;;;;;;6272576;22;20091;-84
2022/12/21 01:41:20;;;;;;;21.52;11.35;;;8.50;99.90;;;;;;6247090;22;20007;-84
2022/12/21 01:43:51;;;;;;;21.33;11.63;;;8.50;99.90;;;;;;6247040;22;20067;-87
2022/12/21 01:46:22;;;;;;;21.38;11.85;;;8.50;99.90;;;;;;6246983;22;20553;-86
2022/12/21 01:48:56;;;;;;;19.75;11.45;;;8.50;99.90;;;;;;6273530;22;20075;-85
2022/12/21 01:51:23;;;;;;;20.70;11.65;;;8.50;99.90;;;;;;6272040;22;20011;-85
2022/12/21 01:53:57;;;;;;;21.73;11.88;;;8.40;99.90;;;;;;6272440;22;20448;-85
2022/12/21 01:56:27;;;;;;;24.35;12.98;;;8.40;99.90;;;;;;6244016;22;20531;-85
2022/12/21 01:58:53;;;;;;;20.23;10.93;;;8.40;99.90;;;;;;6246719;22;20020;-85
2022/12/21 02:01:19;;;;;;;23.83;12.45;;;8.40;99.90;;;;;;6246487;22;20085;-85
2022/12/21 02:03:51;;;;;;;20.67;11.20;;;8.40;99.90;;;;;;6271947;22;20012;-84
2022/12/21 02:06:39;;;;;;;21.05;11.32;;;8.40;99.90;;;;;;6272208;22;20015;-84
2022/12/21 02:09:06;;;;;;;22.58;11.00;;;8.40;99.90;;;;;;6246200;22;20387;-84
2022/12/21 02:11:31;;;;;;;20.38;11.60;;;8.40;99.90;;;;;;6272136;22;20008;-84
2022/12/21 02:13:57;;;;;;;22.88;11.55;;;8.30;99.90;;;;;;6273480;22;20053;-85
2022/12/21 02:16:31;;;;;;;19.15;10.80;;;8.30;99.90;;;;;;6245963;22;20050;-84
2022/12/21 02:19:18;;;;;;;20.27;11.60;;;8.30;99.90;;;;;;6246287;22;20040;-85
2022/12/21 02:21:52;;;;;;;22.02;11.50;;;8.30;99.90;;;;;;6272517;22;20169;-85
2022/12/21 02:24:24;;;;;;;21.77;11.07;;;8.30;99.90;;;;;;6245969;22;20478;-85
2022/12/21 02:27:10;;;;;;;20.63;10.75;;;8.30;99.90;;;;;;6246583;22;20087;-85
2022/12/21 02:30:06;;;;;;;22.67;12.23;;;8.20;99.90;;;;;;6272446;22;20474;-84
2022/12/21 02:32:59;;;;;;;21.15;10.90;;;8.20;99.90;;;;;;6245651;22;20336;-84
2022/12/21 02:35:40;;;;;;;20.75;11.00;;;8.20;99.90;;;;;;6246033;22;20523;-84
2022/12/21 02:38:31;;;;;;;22.67;11.75;;;8.20;99.90;;;;;;6246680;22;20057;-85
2022/12/21 02:40:59;;;;;;;20.95;11.13;;;8.20;99.90;;;;;;6247131;22;20090;-85
2022/12/21 02:46:27;;;;;;;22.00;11.30;;;8.10;99.90;;;;;;6271594;22;20420;-85
2022/12/21 02:49:01;;;;;;;19.50;10.18;;;8.00;99.90;;;;;;6272048;22;20017;-85
2022/12/21 02:51:45;;;;;;;19.70;9.65;;;7.90;99.90;;;;;;6273264;22;20023;-83
2022/12/21 02:54:13;;;;;;;19.38;10.73;;;8.00;99.90;;;;;;6273147;22;20030;-84
2022/12/21 02:56:40;;;;;;;18.98;10.35;;;7.90;99.90;;;;;;6272230;22;20020;-85
2022/12/21 02:59:10;;;;;;;21.85;11.10;;;8.00;99.90;;;;;;6246700;22;20022;-85
2022/12/21 03:02:13;;;;;;;21.40;10.73;;;8.00;99.90;;;;;;6271321;22;20036;-85
2022/12/21 03:04:47;;;;;;;19.23;10.82;;;7.90;99.90;;;;;;6271952;22;20003;-85
2022/12/21 03:07:27;;;;;;;18.83;9.38;;;7.90;99.90;;;;;;6246210;22;20014;-84
2022/12/21 03:10:10;;;;;;;21.17;10.53;;;7.90;99.90;;;;;;6245826;22;20007;-84
2022/12/21 03:12:47;;;;;;;20.27;10.75;;;7.90;99.90;;;;;;6297657;22;20772;-85
2022/12/21 03:15:18;;;;;;;24.58;11.57;;;7.90;99.90;;;;;;6270475;22;20008;-85
2022/12/21 03:18:15;;;;;;;18.90;10.25;;;7.90;99.90;;;;;;6246141;22;20018;-85
2022/12/21 03:20:47;;;;;;;20.77;10.57;;;7.90;99.90;;;;;;6271762;22;20075;-84
2022/12/21 03:23:18;;;;;;;21.77;11.07;;;7.90;99.90;;;;;;6271662;22;20363;-85
2022/12/21 03:26:02;;;;;;;24.50;12.45;;;7.80;99.90;;;;;;6273123;22;20053;-85
2022/12/21 03:28:33;;;;;;;22.60;11.13;;;7.80;99.90;;;;;;6271643;22;20007;-84
2022/12/21 03:31:03;;;;;;;23.80;11.88;;;7.80;99.90;;;;;;6270672;22;20019;-86
2022/12/21 03:33:34;;;;;;;21.27;10.93;;;7.80;99.90;;;;;;6297048;22;20003;-84
2022/12/21 03:36:09;;;;;;;;;;;7.80;99.90;;;;;;6272468;22;20405;-85
2022/12/21 03:38:43;;;;;;;14.25;6.80;;;7.80;99.90;;;;;;6272798;22;19911;-85
2022/12/21 03:41:17;;;;;;;17.98;8.40;;;7.80;99.90;;;;;;6271672;22;19999;-84
2022/12/21 03:43:47;;;;;;;17.08;8.98;;;7.80;99.90;;;;;;6297079;22;20008;-85
2022/12/21 03:46:20;;;;;;;19.03;8.90;;;7.80;99.90;;;;;;6245703;22;20010;-85
2022/12/21 03:48:55;;;;;;;19.23;9.55;;;7.80;99.90;;;;;;6245938;22;20495;-84
2022/12/21 03:51:41;;;;;;;20.38;10.63;;;7.90;99.90;;;;;;6245762;22;20558;-85
2022/12/21 03:54:26;;;;;;;17.63;9.02;;;7.90;99.90;;;;;;6271888;22;20094;-85
2022/12/21 03:56:52;;;;;;;23.52;11.20;;;7.80;99.90;;;;;;6271818;22;20007;-84
2022/12/21 03:59:18;;;;;;;22.65;10.25;;;7.90;99.90;;;;;;6270649;22;20038;-85
2022/12/21 04:02:06;;;;;;;22.27;10.88;;;7.80;99.90;;;;;;6273309;22;20004;-84
2022/12/21 04:04:50;;;;;;;20.77;10.30;;;7.80;99.90;;;;;;6271144;22;20440;-85
2022/12/21 04:07:23;;;;;;;22.73;10.50;;;7.80;99.90;;;;;;6271371;22;20386;-85
2022/12/21 04:09:55;;;;;;;20.80;9.82;;;7.90;99.90;;;;;;6245790;22;20157;-84
2022/12/21 04:12:39;;;;;;;20.30;9.60;;;7.90;99.90;;;;;;6272226;22;20035;-84
2022/12/21 04:15:16;;;;;;;20.60;10.27;;;7.80;99.90;;;;;;6270890;22;20012;-84
2022/12/21 04:17:45;;;;;;;19.95;9.88;;;7.90;99.90;;;;;;6273220;22;20035;-84
2022/12/21 04:20:14;;;;;;;21.58;10.65;;;7.80;99.90;;;;;;6271990;22;20023;-84
2022/12/21 04:28:22;;;;;;;19.65;9.35;;;7.90;99.90;;;;;;6270592;22;20035;-84
2022/12/21 04:30:48;;;;;;;20.33;10.10;;;7.80;99.90;;;;;;6271716;22;20391;-85
2022/12/21 04:33:19;;;;;;;24.45;10.63;;;7.80;99.90;;;;;;6296768;22;20008;-83
2022/12/21 04:38:33;;;;;;;20.58;9.48;;;7.80;99.90;;;;;;6270699;22;20026;-83
2022/12/21 04:40:59;;;;;;;21.15;9.88;;;7.80;99.90;;;;;;6270940;22;20019;-83
2022/12/21 04:43:25;;;;;;;21.77;10.82;;;7.80;99.90;;;;;;6271327;22;20066;-84
2022/12/21 04:46:02;;;;;;;18.77;8.90;;;7.80;99.90;;;;;;6247264;22;20012;-84
2022/12/21 04:48:28;;;;;;;21.27;9.52;;;7.80;99.90;;;;;;6247040;22;20083;-84
2022/12/21 04:50:55;;;;;;;20.98;10.23;;;7.80;99.90;;;;;;6274471;22;20012;-83
2022/12/21 04:53:21;;;;;;;19.73;10.65;;;7.80;99.90;;;;;;6271937;22;20034;-84
2022/12/21 04:55:47;;;;;;;17.58;9.48;;;7.80;99.90;;;;;;6246365;22;20432;-84
2022/12/21 04:58:13;;;;;;;21.50;10.32;;;7.80;99.90;;;;;;6222027;22;20003;-84
2022/12/21 05:00:38;;;;;;;21.50;10.60;;;7.80;99.90;;;;;;6274235;22;20058;-84
2022/12/21 05:03:05;;;;;;;21.02;9.85;;;7.80;99.90;;;;;;6273361;22;20032;-84
2022/12/21 05:05:30;;;;;;;22.23;10.98;;;7.80;99.90;;;;;;6221483;22;20394;-84
2022/12/21 05:07:56;;;;;;;20.48;10.30;;;7.80;99.90;;;;;;6272960;22;20004;-84
2022/12/21 05:10:22;;;;;;;24.75;11.27;;;7.80;99.90;;;;;;6271832;22;20031;-83
2022/12/21 05:12:48;;;;;;;24.05;11.60;;;7.80;99.90;;;;;;6274194;22;20007;-84
2022/12/21 05:15:16;;;;;;;22.02;11.27;;;7.90;99.90;;;;;;6246328;22;20305;-84
2022/12/21 05:17:42;;;;;;;21.55;10.65;;;7.80;99.90;;;;;;6272739;22;20003;-84
2022/12/21 05:20:08;;;;;;;20.75;10.70;;;7.80;99.90;;;;;;6273947;22;20020;-84
2022/12/21 05:22:34;;;;;;;20.88;10.20;;;7.90;99.90;;;;;;6221404;22;20079;-84
2022/12/21 05:25:00;;;;;;;20.08;10.55;;;7.80;99.90;;;;;;6246184;22;20040;-84
2022/12/21 05:27:25;;;;;;;24.70;12.15;;;7.90;99.90;;;;;;6221167;22;20010;-84
2022/12/21 05:29:51;;;;;;;22.95;12.18;;;7.90;99.90;;;;;;6274011;22;20004;-84
2022/12/21 05:32:17;;;;;;;21.95;11.00;;;7.80;99.90;;;;;;6246611;22;20433;-84
2022/12/21 05:34:42;;;;;;;24.95;12.70;;;7.80;99.90;;;;;;6247131;22;20012;-84
2022/12/21 05:37:08;;;;;;;24.60;11.52;;;7.80;99.90;;;;;;6273123;22;20098;-84
2022/12/21 05:39:34;;;;;;;20.60;10.93;;;7.80;99.90;;;;;;6246131;22;20027;-84
2022/12/21 05:42:01;;;;;;;21.63;11.88;;;7.80;99.90;;;;;;6246217;22;20379;-86
2022/12/21 05:44:27;;;;;;;24.88;12.48;;;7.80;99.90;;;;;;6244565;22;20039;-85
2022/12/21 05:46:53;;;;;;;24.98;12.50;;;7.80;99.90;;;;;;6246934;22;20004;-86
2022/12/21 05:49:19;;;;;;;27.92;14.45;;;7.70;99.90;;;;;;6221196;22;20011;-85
2022/12/21 05:51:49;;;;;;;26.55;13.38;;;7.70;99.90;;;;;;6246530;22;20030;-86
2022/12/21 05:54:15;;;;;;;27.95;14.07;;;7.60;99.90;;;;;;6220754;22;20026;-86
2022/12/21 05:56:42;;;;;;;24.75;13.05;;;7.60;99.90;;;;;;6246397;22;20011;-85
2022/12/21 05:59:08;;;;;;;24.60;13.30;;;7.50;99.90;;;;;;6245946;22;20022;-85
2022/12/21 06:01:34;;;;;;;22.95;12.85;;;7.50;99.90;;;;;;6273474;22;20027;-86
2022/12/21 06:03:59;;;;;;;21.45;12.32;;;7.40;99.90;;;;;;6246423;22;20440;-86
2022/12/21 06:06:25;;;;;;;24.98;13.10;;;7.40;99.90;;;;;;6221008;22;20003;-85
2022/12/21 06:08:51;;;;;;;21.05;11.75;;;7.40;99.90;;;;;;6272377;22;20010;-86
2022/12/21 06:11:20;;;;;;;21.60;11.10;;;7.50;99.90;;;;;;6246825;22;20019;-85
2022/12/21 06:13:46;;;;;;;19.50;10.45;;;7.30;99.90;;;;;;6245488;22;20003;-85
2022/12/21 06:16:18;;;;;;;17.67;9.75;;;7.30;99.90;;;;;;6220357;22;20008;-85
2022/12/21 06:18:45;;;;;;;21.63;10.07;;;7.20;99.90;;;;;;6246525;22;20004;-86
2022/12/21 06:21:13;;;;;;;17.67;9.27;;;7.20;99.90;;;;;;6245680;22;20026;-86
2022/12/21 06:23:39;;;;;;;20.40;10.32;;;7.20;99.90;;;;;;6245874;22;20007;-84
2022/12/21 06:26:09;;;;;;;17.52;8.85;;;7.20;99.90;;;;;;6220634;22;20086;-85
2022/12/21 06:28:37;;;;;;;17.17;8.85;;;7.30;99.90;;;;;;6272502;22;20007;-85
2022/12/21 06:31:08;;;;;;;17.00;8.10;;;7.30;99.90;;;;;;6273487;22;20008;-85
2022/12/21 06:33:35;;;;;;;16.27;7.97;;;7.30;99.90;;;;;;6245723;22;20034;-85
2022/12/21 06:36:01;;;;;;;16.23;7.78;;;7.20;99.90;;;;;;6273441;22;20361;-85
2022/12/21 06:38:27;;;;;;;14.75;7.35;;;7.20;99.90;;;;;;6271079;22;20033;-85
2022/12/21 06:40:54;;;;;;;14.18;6.78;;;7.20;99.90;;;;;;6245873;22;20023;-84
2022/12/21 06:43:20;;;;;;;15.23;6.90;;;7.20;99.90;;;;;;6271449;22;20004;-84
2022/12/21 06:45:52;;;;;;;11.88;5.82;;;7.20;99.90;;;;;;6246798;22;20093;-85
2022/12/21 06:48:18;;;;;;;13.30;6.30;;;7.20;99.90;;;;;;6220602;22;20379;-84
2022/12/21 06:50:43;;;;;;;13.55;6.03;;;7.10;99.90;;;;;;6246224;22;20003;-84
2022/12/21 06:53:09;;;;;;;14.15;6.30;;;7.20;99.90;;;;;;6245880;22;20010;-84
2022/12/21 06:55:35;;;;;;;13.80;6.70;;;7.10;99.90;;;;;;6245291;22;20037;-84
2022/12/21 06:58:00;;;;;;;15.65;7.53;;;7.10;99.90;;;;;;6245145;22;20220;-84
2022/12/21 07:00:26;;;;;;;12.07;6.72;;;7.00;99.90;;;;;;6270923;22;20022;-83
2022/12/21 07:02:51;;;;;;;11.93;5.45;;;6.90;99.90;;;;;;6273152;22;20007;-84
2022/12/21 07:05:17;;;;;;;12.85;5.68;;;6.90;99.90;;;;;;6245568;22;20003;-84
2022/12/21 07:07:43;;;;;;;9.40;4.50;;;6.90;99.90;;;;;;6245300;22;20031;-84
2022/12/21 07:10:09;;;;;;;11.13;4.90;;;6.90;99.90;;;;;;6245785;22;20057;-84
2022/12/21 07:12:35;;;;;;;10.60;4.90;;;6.90;99.90;;;;;;6245587;22;20007;-84
2022/12/21 07:15:00;;;;;;;12.60;4.95;;;6.80;99.90;;;;;;6272504;22;20073;-83
2022/12/21 07:17:27;;;;;;;10.32;4.15;;;6.90;99.90;;;;;;6245339;22;20010;-84
2022/12/21 07:19:53;;;;;;;12.13;5.65;;;6.80;99.90;;;;;;6271407;22;20523;-84
2022/12/21 07:22:18;;;;;;;8.88;4.05;;;6.90;99.90;;;;;;6270582;22;20000;-84
2022/12/21 07:24:44;;;;;;;10.13;4.25;;;7.00;99.90;;;;;;6220664;22;20035;-84
2022/12/21 07:27:10;;;;;;;9.23;4.35;;;7.00;99.90;;;;;;6245955;22;20011;-84
2022/12/21 07:29:35;;;;;;;11.18;4.97;;;7.00;99.90;;;;;;6245676;22;20376;-84
2022/12/21 07:32:01;;;;;;;10.35;5.10;;;7.00;99.90;;;;;;6245698;22;20004;-84
2022/12/21 07:34:27;;;;;;;10.05;4.43;;;7.10;99.90;;;;;;6245414;22;20004;-85
2022/12/21 07:36:52;;;;;;;11.70;5.70;;;7.10;99.90;;;;;;6245628;22;20011;-84
2022/12/21 07:39:18;;;;;;;9.18;3.80;;;7.10;99.90;;;;;;6244916;22;20011;-84
2022/12/21 07:41:43;;;;;;;9.77;4.07;;;7.10;99.90;;;;;;6244101;22;20038;-84
2022/12/21 07:44:10;;;;;;;9.30;4.57;;;7.10;99.90;;;;;;6242810;22;20038;-84
2022/12/21 07:46:56;;;;;;;12.23;4.82;;;7.20;99.90;;;;;;6270455;22;20371;-85
2022/12/21 07:49:24;;;;;;;10.82;4.38;;;7.10;99.90;;;;;;6217484;22;20008;-84
2022/12/21 07:51:50;;;;;;;11.05;5.20;;;7.10;99.90;;;;;;6268149;22;20011;-84
2022/12/21 07:54:15;;;;;;;12.38;4.95;;;7.00;99.90;;;;;;6218109;22;20015;-84
2022/12/21 07:56:44;;;;;;;10.88;4.38;;;7.10;99.90;;;;;;6244542;22;20337;-83
2022/12/21 07:59:10;;;;;;;9.38;4.32;;;7.10;99.90;;;;;;6244035;22;20444;-84
2022/12/21 08:01:35;;;;;;;11.20;4.15;;;7.00;99.90;;;;;;6218178;22;20004;-84
2022/12/21 08:04:01;;;;;;;8.32;4.05;;;7.10;99.90;;;;;;6243992;22;20007;-84
2022/12/21 08:06:27;;;;;;;8.57;4.10;;;7.00;99.90;;;;;;6218359;22;20000;-84
2022/12/21 08:08:52;;;;;;;10.93;4.38;;;7.00;99.90;;;;;;6269382;22;20000;-84
2022/12/21 08:11:19;;;;;;;10.93;4.20;;;7.00;99.90;;;;;;6243302;22;20027;-84
2022/12/21 08:13:46;;;;;;;9.60;4.00;;;7.00;99.90;;;;;;6217940;22;20016;-84
2022/12/21 08:16:14;;;;;;;10.18;5.82;;;7.00;99.90;;;;;;6242867;22;20015;-84
2022/12/21 08:18:40;;;;;;;13.35;6.80;;;7.00;99.90;;;;;;6218221;22;20027;-84
2022/12/21 08:21:06;;;;;;;13.85;6.80;;;7.10;99.90;;;;;;6272140;22;20015;-84
2022/12/21 08:23:31;;;;;;;11.05;5.50;;;7.10;99.90;;;;;;6244764;22;20003;-84
2022/12/21 08:26:05;;;;;;;12.63;7.68;;;7.00;99.90;;;;;;6220041;22;20015;-83
2022/12/21 08:28:32;;;;;;;12.63;6.18;;;7.10;99.90;;;;;;6245161;22;20436;-83
2022/12/21 08:31:06;;;;;;;7.53;3.95;;;7.10;99.90;;;;;;6245486;22;20003;-84
2022/12/21 08:33:32;;;;;;;13.88;5.47;;;7.10;99.90;;;;;;6271876;22;20032;-85
2022/12/21 08:35:57;;;;;;;10.23;4.60;;;7.10;99.90;;;;;;6219963;22;20014;-84
2022/12/21 08:38:23;;;;;;;10.65;5.18;;;7.00;99.90;;;;;;6219314;22;20375;-85
2022/12/21 08:40:49;;;;;;;13.13;5.65;;;7.10;99.90;;;;;;6272116;22;20455;-85
2022/12/21 08:43:15;;;;;;;12.15;5.75;;;7.00;99.90;;;;;;6244512;22;20399;-84
2022/12/21 08:45:40;;;;;;;11.73;6.03;;;7.10;99.90;;;;;;6245202;22;20008;-84
2022/12/21 08:48:06;;;;;;;12.02;5.30;;;7.00;99.90;;;;;;6244804;22;20008;-84
2022/12/21 08:50:32;;;;;;;14.15;5.85;;;7.00;99.90;;;;;;6270103;22;20011;-84
2022/12/21 08:52:58;;;;;;;11.73;5.55;;;7.00;99.90;;;;;;6219801;22;20141;-84
2022/12/21 08:55:23;;;;;;;13.32;6.80;;;7.00;99.90;;;;;;6270465;22;20018;-84
2022/12/21 08:57:49;;;;;;;11.25;5.55;;;7.00;99.90;;;;;;6220238;22;20336;-83
2022/12/21 09:00:15;;;;;;;8.45;3.83;;;7.00;99.90;;;;;;6244385;22;20019;-84
2022/12/21 09:02:40;;;;;;;11.15;5.40;;;7.00;99.90;;;;;;6271952;22;20031;-84
2022/12/21 09:05:06;;;;;;;11.20;5.47;;;6.90;99.90;;;;;;6245014;22;20035;-85
2022/12/21 09:07:32;;;;;;;11.02;4.90;;;7.00;99.90;;;;;;6271474;22;20004;-84
2022/12/21 09:09:58;;;;;;;9.95;5.47;;;6.90;99.90;;;;;;6271563;22;20008;-84
2022/12/21 09:12:23;;;;;;;12.35;6.38;;;6.90;99.90;;;;;;6219282;22;20003;-84
2022/12/21 09:14:49;;;;;;;12.45;6.30;;;7.00;99.90;;;;;;6244763;22;20014;-83
2022/12/21 09:17:15;;;;;;;14.68;5.68;;;7.00;99.90;;;;;;6269501;22;20004;-85
2022/12/21 09:19:40;;;;;;;18.00;7.05;;;7.10;99.90;;;;;;6244968;22;20015;-84
2022/12/21 09:22:06;;;;;;;10.40;5.72;;;7.20;99.90;;;;;;6271744;22;20396;-85
2022/12/21 09:24:31;;;;;;;11.05;5.88;;;7.30;99.90;;;;;;6244710;22;20504;-85
2022/12/21 09:26:57;;;;;;;12.75;5.60;;;7.30;99.90;;;;;;6270661;22;20015;-84
2022/12/21 09:29:23;;;;;;;10.48;5.03;;;7.40;99.90;;;;;;6269679;22;20068;-85
2022/12/21 09:31:50;;;;;;;10.70;5.88;;;7.40;99.90;;;;;;6270293;22;20008;-84
2022/12/21 09:34:17;;;;;;;11.77;5.97;;;7.30;99.90;;;;;;6244184;22;20012;-85
2022/12/21 09:36:43;;;;;;;11.43;5.68;;;7.40;99.90;;;;;;6245011;22;20007;-85
2022/12/21 09:39:08;;;;;;;9.05;4.75;;;7.40;99.90;;;;;;6244625;22;20027;-84
2022/12/21 09:42:13;;;;;;;11.75;5.47;;;7.50;99.90;;;;;;6244090;22;20074;-85
2022/12/21 09:45:05;;;;;;;8.65;3.88;;;7.50;99.90;;;;;;6206601;22;20065;-85
2022/12/21 09:47:46;;;;;;;10.30;4.43;;;7.60;99.90;;;;;;6243562;22;20097;-85
2022/12/21 09:50:26;;;;;;;9.38;4.60;;;7.70;99.90;;;;;;6219466;22;20030;-85
2022/12/21 09:53:01;;;;;;;10.60;3.92;;;7.70;99.90;;;;;;6219710;22;20033;-84
2022/12/21 09:55:32;;;;;;;11.65;5.18;;;7.70;99.90;;;;;;6244004;22;20482;-85
2022/12/21 09:58:05;;;;;;;9.32;4.30;;;7.80;99.90;;;;;;6219698;22;20012;-85
2022/12/21 10:00:33;;;;;;;8.60;4.40;;;7.80;99.90;;;;;;6218302;22;20514;-84
2022/12/21 10:03:05;;;;;;;9.80;4.53;;;7.90;99.90;;;;;;6244220;22;20011;-85
2022/12/21 10:06:05;;;;;;;10.55;5.40;;;7.90;99.90;;;;;;6244072;22;20019;-85
2022/12/21 10:08:34;;;;;;;12.30;6.50;;;7.90;99.90;;;;;;6205995;22;20478;-84
2022/12/21 10:11:27;;;;;;;16.05;6.25;;;7.90;99.90;;;;;;6219002;22;20011;-84
2022/12/21 10:14:17;;;;;;;11.70;5.45;;;8.00;99.90;;;;;;6218710;22;20084;-85
2022/12/21 10:16:43;;;;;;;;;;;7.90;99.90;;;;;;6244158;22;20190;-85
2022/12/21 10:19:27;;;;;;;11.57;5.47;;;8.00;99.90;;;;;;6218915;22;19919;-84
2022/12/21 10:22:02;;;;;;;12.23;7.57;;;7.90;99.90;;;;;;6270466;22;20090;-84
2022/12/21 10:24:51;;;;;;;10.85;7.00;;;8.00;99.90;;;;;;6271179;22;20011;-86
2022/12/21 10:27:29;;;;;;;14.93;7.53;;;8.00;99.90;;;;;;6218369;22;20004;-84
2022/12/21 10:29:57;;;;;;;16.50;7.43;;;7.90;99.90;;;;;;6243594;22;20011;-85
2022/12/21 10:32:28;;;;;;;13.75;7.30;;;7.90;99.90;;;;;;6243994;22;20003;-83
2022/12/21 10:34:56;;;;;;;11.35;6.72;;;7.90;99.90;;;;;;6271245;22;20389;-85
2022/12/21 10:37:23;;;;;;;12.60;6.50;;;8.00;99.90;;;;;;6218270;22;20008;-84
2022/12/21 10:39:58;;;;;;;9.52;6.07;;;8.00;99.90;;;;;;6244030;22;20348;-85
2022/12/21 10:42:40;;;;;;;10.65;5.65;;;8.00;99.90;;;;;;6243887;22;20057;-84
2022/12/21 10:45:12;;;;;;;10.95;5.75;;;8.00;99.90;;;;;;6218857;22;20058;-85
2022/12/21 10:47:40;;;;;;;8.38;4.68;;;8.00;99.90;;;;;;6271363;22;20055;-85
2022/12/21 10:50:12;;;;;;;10.55;5.95;;;8.00;99.90;;;;;;6244205;22;20016;-84
2022/12/21 10:52:42;;;;;;;10.50;5.70;;;8.00;99.90;;;;;;6243825;22;20000;-84
2022/12/21 10:55:20;;;;;;;13.93;6.28;;;8.00;99.90;;;;;;6243618;22;20093;-85
2022/12/21 10:57:55;;;;;;;12.48;6.95;;;8.00;99.90;;;;;;6219057;22;20007;-84
2022/12/21 11:00:25;;;;;;;12.00;6.05;;;8.10;99.90;;;;;;6217468;22;20058;-85
2022/12/21 11:02:57;;;;;;;11.05;5.88;;;8.10;99.90;;;;;;6218970;22;20061;-85
2022/12/21 11:05:28;;;;;;;10.45;5.82;;;8.10;99.90;;;;;;6243491;22;20035;-85
2022/12/21 11:08:13;;;;;;;13.25;7.63;;;8.20;99.90;;;;;;6218104;22;20034;-85
2022/12/21 11:10:46;;;;;;;12.57;6.03;;;8.20;99.90;;;;;;6218395;22;20087;-83
2022/12/21 11:13:13;;;;;;;12.00;6.30;;;8.20;99.90;;;;;;6217681;22;20532;-84
2022/12/21 11:15:49;;;;;;;13.60;6.95;;;8.30;99.90;;;;;;6270712;22;20007;-85
2022/12/21 11:18:26;;;;;;;13.75;6.55;;;8.30;99.90;;;;;;6217858;22;20015;-84
2022/12/21 11:20:53;;;;;;;13.55;7.07;;;8.30;99.90;;;;;;6241656;22;20098;-83
2022/12/21 11:23:18;;;;;;;21.55;10.80;;;8.40;99.90;;;;;;6218076;22;20012;-84
2022/12/21 11:25:44;;;;;;;25.08;13.23;;;8.40;99.90;;;;;;6218192;22;20030;-85
2022/12/21 11:28:10;;;;;;;21.92;13.07;;;8.40;99.90;;;;;;6243694;22;20004;-85
2022/12/21 11:30:36;;;;;;;21.58;13.70;;;8.50;99.90;;;;;;6242906;22;20312;-87
2022/12/21 11:33:02;;;;;;;18.77;11.80;;;8.60;99.90;;;;;;6270412;22;20087;-84
2022/12/21 11:35:31;;;;;;;24.60;14.75;;;8.60;99.90;;;;;;6217996;22;20007;-84
2022/12/21 11:38:07;;;;;;;30.20;16.80;;;8.70;99.90;;;;;;6243872;22;20086;-84
2022/12/21 11:40:33;;;;;;;26.02;15.20;;;8.70;99.90;;;;;;6217598;22;20415;-84
2022/12/21 11:43:02;;;;;;;26.73;14.20;;;8.70;99.90;;;;;;6217974;22;20004;-84
2022/12/21 11:45:42;;;;;;;21.17;13.45;;;8.70;99.90;;;;;;6243846;22;20003;-85
2022/12/21 11:48:30;;;;;;;19.52;11.50;;;8.70;99.90;;;;;;6218266;22;20371;-85
2022/12/21 11:51:08;;;;;;;18.35;11.98;;;8.80;99.90;;;;;;6243030;22;20012;-84
2022/12/21 11:53:52;;;;;;;21.17;12.80;;;8.90;99.90;;;;;;6244923;22;20015;-84
2022/12/21 11:56:59;;;;;;;22.85;12.57;;;8.90;99.90;;;;;;6244398;22;20043;-85
2022/12/21 11:59:37;;;;;;;17.88;9.70;;;8.90;99.90;;;;;;6146754;23;20009;-85
2022/12/21 12:02:11;;;;;;;15.75;9.88;;;9.00;99.90;;;;;;6178506;23;20028;-86
2022/12/21 12:04:54;;;;;;;15.98;9.98;;;8.90;99.90;;;;;;6178226;23;20012;-84
2022/12/21 12:07:38;;;;;;;14.63;9.32;;;8.90;99.90;;;;;;6178345;23;20329;-84
2022/12/21 12:10:28;;;;;;;19.80;9.93;;;8.90;99.90;;;;;;6178591;23;20037;-84
2022/12/21 12:13:15;;;;;;;13.60;7.53;;;8.90;99.90;;;;;;6178462;23;20272;-84
2022/12/21 12:16:00;;;;;;;21.83;9.30;;;8.90;99.90;;;;;;6178595;23;20016;-85
2022/12/21 12:18:41;;;;;;;16.25;7.75;;;9.00;99.90;;;;;;6178014;23;20009;-83
2022/12/21 12:21:43;;;;;;;18.23;8.77;;;9.00;99.90;;;;;;6178064;23;20045;-84
2022/12/21 12:24:21;;;;;;;11.10;6.30;;;9.00;99.90;;;;;;6178370;23;20012;-85
2022/12/21 12:26:58;;;;;;;12.43;6.03;;;9.00;99.90;;;;;;6178554;23;20009;-84
2022/12/21 12:29:25;;;;;;;9.55;5.80;;;9.00;99.90;;;;;;6194907;22;20393;-84
2022/12/21 12:32:12;;;;;;;13.48;6.50;;;9.00;99.90;;;;;;6219609;22;20034;-84
2022/12/21 12:35:16;;;;;;;11.13;5.90;;;9.00;99.90;;;;;;6244820;22;20011;-84
2022/12/21 12:38:02;;;;;;;10.02;5.55;;;9.10;99.90;;;;;;6123848;23;20080;-85
2022/12/21 12:41:09;;;;;;;9.43;4.68;;;9.00;99.90;;;;;;6098109;23;20018;-83
2022/12/21 12:43:43;;;;;;;13.98;6.93;;;9.10;99.90;;;;;;6118920;23;20506;-84
2022/12/21 12:46:46;;;;;;;10.98;6.90;;;9.00;99.90;;;;;;6148091;23;20096;-82
2022/12/21 12:49:29;;;;;;;11.02;7.13;;;9.00;99.90;;;;;;6122974;23;20036;-83
2022/12/21 12:52:23;;;;;;;12.52;5.65;;;9.00;99.90;;;;;;6147275;23;20422;-83
2022/12/21 12:55:07;;;;;;;12.75;7.25;;;8.90;99.90;;;;;;6146902;23;20017;-82
2022/12/21 12:57:55;;;;;;;13.80;6.97;;;8.90;99.90;;;;;;6147006;23;20020;-85
2022/12/21 13:00:21;;;;;;;11.80;6.68;;;9.00;99.90;;;;;;6123117;23;20044;-83
2022/12/21 13:03:15;;;;;;;13.52;7.55;;;8.90;99.90;;;;;;6122749;23;20281;-82
2022/12/21 13:05:59;;;;;;;12.05;7.00;;;9.00;99.90;;;;;;6098591;23;20013;-83
2022/12/21 13:08:37;;;;;;;13.63;7.18;;;8.90;99.90;;;;;;6098267;23;20594;-82
2022/12/21 13:11:28;;;;;;;15.63;8.18;;;8.90;99.90;;;;;;6122665;23;20023;-83
2022/12/21 13:14:10;;;;;;;11.88;7.35;;;8.80;99.90;;;;;;6204911;22;20046;-82
2022/12/21 13:16:49;;;;;;;16.10;8.30;;;8.80;99.90;;;;;;6218823;22;20038;-81